sensor_id;sensor_type;location;lat;lon;timestamp;P1;durP1;ratioP1;P2;durP2;ratioP2
15595;SDS011;7898;48.658;9.068;2024-02-21T00:01:29;12.80;;;6.07;;
15595;SDS011;7898;48.658;9.068;2024-02-21T00:03:56;13.77;;;5.53;;
15595;SDS011;7898;48.658;9.068;2024-02-21T00:06:24;10.23;;;5.77;;
15595;SDS011;7898;48.658;9.068;2024-02-21T00:08:52;11.77;;;6.03;;
15595;SDS011;7898;48.658;9.068;2024-02-21T00:11:19;11.13;;;5.67;;
15595;SDS011;7898;48.658;9.068;2024-02-21T00:13:46;15.00;;;5.77;;
15595;SDS011;7898;48.658;9.068;2024-02-21T00:16:12;12.83;;;6.40;;
15595;SDS011;7898;48.658;9.068;2024-02-21T00:18:40;11.03;;;5.13;;
15595;SDS011;7898;48.658;9.068;2024-02-21T00:21:07;13.83;;;6.17;;
15595;SDS011;7898;48.658;9.068;2024-02-21T00:23:35;18.23;;;5.10;;
15595;SDS011;7898;48.658;9.068;2024-02-21T00:26:02;8.27;;;4.40;;
15595;SDS011;7898;48.658;9.068;2024-02-21T00:28:30;7.80;;;4.40;;
15595;SDS011;7898;48.658;9.068;2024-02-21T00:30:57;11.27;;;5.57;;
15595;SDS011;7898;48.658;9.068;2024-02-21T00:33:24;8.87;;;5.23;;
15595;SDS011;7898;48.658;9.068;2024-02-21T00:35:51;8.63;;;4.80;;
15595;SDS011;7898;48.658;9.068;2024-02-21T00:38:18;10.83;;;5.47;;
15595;SDS011;7898;48.658;9.068;2024-02-21T00:40:46;10.93;;;5.40;;
15595;SDS011;7898;48.658;9.068;2024-02-21T00:43:13;17.50;;;8.57;;
15595;SDS011;7898;48.658;9.068;2024-02-21T00:45:40;15.57;;;6.47;;
15595;SDS011;7898;48.658;9.068;2024-02-21T00:48:07;14.63;;;6.40;;
15595;SDS011;7898;48.658;9.068;2024-02-21T00:50:34;14.23;;;6.07;;
15595;SDS011;7898;48.658;9.068;2024-02-21T00:53:02;13.77;;;7.60;;
15595;SDS011;7898;48.658;9.068;2024-02-21T00:55:29;14.03;;;7.43;;
15595;SDS011;7898;48.658;9.068;2024-02-21T00:57:57;12.83;;;6.30;;
15595;SDS011;7898;48.658;9.068;2024-02-21T01:00:24;14.23;;;6.93;;
15595;SDS011;7898;48.658;9.068;2024-02-21T01:02:51;13.47;;;6.10;;
15595;SDS011;7898;48.658;9.068;2024-02-21T01:05:18;12.27;;;5.73;;
15595;SDS011;7898;48.658;9.068;2024-02-21T01:07:45;10.30;;;5.80;;
15595;SDS011;7898;48.658;9.068;2024-02-21T01:10:12;10.73;;;4.97;;
15595;SDS011;7898;48.658;9.068;2024-02-21T01:12:39;12.70;;;5.20;;
15595;SDS011;7898;48.658;9.068;2024-02-21T01:15:07;9.87;;;5.07;;
15595;SDS011;7898;48.658;9.068;2024-02-21T01:17:35;15.43;;;4.60;;
15595;SDS011;7898;48.658;9.068;2024-02-21T01:20:02;11.00;;;3.77;;
15595;SDS011;7898;48.658;9.068;2024-02-21T01:22:30;6.53;;;3.37;;
15595;SDS011;7898;48.658;9.068;2024-02-21T01:24:57;9.70;;;3.40;;
15595;SDS011;7898;48.658;9.068;2024-02-21T01:27:24;8.73;;;3.37;;
15595;SDS011;7898;48.658;9.068;2024-02-21T01:29:50;11.67;;;3.63;;
15595;SDS011;7898;48.658;9.068;2024-02-21T01:32:19;13.93;;;3.73;;
15595;SDS011;7898;48.658;9.068;2024-02-21T01:34:47;9.53;;;3.43;;
15595;SDS011;7898;48.658;9.068;2024-02-21T01:37:13;7.10;;;3.37;;
15595;SDS011;7898;48.658;9.068;2024-02-21T01:39:40;10.97;;;3.93;;
15595;SDS011;7898;48.658;9.068;2024-02-21T01:42:07;6.77;;;3.07;;
15595;SDS011;7898;48.658;9.068;2024-02-21T01:44:34;7.43;;;4.23;;
15595;SDS011;7898;48.658;9.068;2024-02-21T01:47:01;9.63;;;3.80;;
15595;SDS011;7898;48.658;9.068;2024-02-21T01:49:30;7.13;;;3.63;;
15595;SDS011;7898;48.658;9.068;2024-02-21T01:51:57;8.90;;;3.47;;
15595;SDS011;7898;48.658;9.068;2024-02-21T01:54:24;8.87;;;4.03;;
15595;SDS011;7898;48.658;9.068;2024-02-21T01:56:53;9.40;;;3.40;;
15595;SDS011;7898;48.658;9.068;2024-02-21T01:59:20;7.17;;;3.47;;
15595;SDS011;7898;48.658;9.068;2024-02-21T02:01:48;9.77;;;3.13;;
15595;SDS011;7898;48.658;9.068;2024-02-21T02:04:16;9.17;;;3.97;;
15595;SDS011;7898;48.658;9.068;2024-02-21T02:06:45;7.50;;;3.63;;
15595;SDS011;7898;48.658;9.068;2024-02-21T02:09:12;13.30;;;4.17;;
15595;SDS011;7898;48.658;9.068;2024-02-21T02:11:39;8.50;;;4.07;;
15595;SDS011;7898;48.658;9.068;2024-02-21T02:14:06;12.77;;;4.60;;
15595;SDS011;7898;48.658;9.068;2024-02-21T02:16:32;8.13;;;3.83;;
15595;SDS011;7898;48.658;9.068;2024-02-21T02:18:59;10.37;;;3.60;;
15595;SDS011;7898;48.658;9.068;2024-02-21T02:21:27;6.30;;;4.03;;
15595;SDS011;7898;48.658;9.068;2024-02-21T02:24:00;7.67;;;3.80;;
15595;SDS011;7898;48.658;9.068;2024-02-21T02:26:27;11.13;;;3.67;;
15595;SDS011;7898;48.658;9.068;2024-02-21T02:28:53;8.13;;;3.83;;
15595;SDS011;7898;48.658;9.068;2024-02-21T02:31:20;8.93;;;3.70;;
15595;SDS011;7898;48.658;9.068;2024-02-21T02:33:47;7.93;;;4.13;;
15595;SDS011;7898;48.658;9.068;2024-02-21T02:36:14;8.07;;;3.90;;
15595;SDS011;7898;48.658;9.068;2024-02-21T02:38:41;5.60;;;3.27;;
15595;SDS011;7898;48.658;9.068;2024-02-21T02:41:09;7.07;;;3.43;;
15595;SDS011;7898;48.658;9.068;2024-02-21T02:43:36;8.97;;;3.40;;
15595;SDS011;7898;48.658;9.068;2024-02-21T02:46:03;9.23;;;3.73;;
15595;SDS011;7898;48.658;9.068;2024-02-21T02:48:30;9.10;;;3.40;;
15595;SDS011;7898;48.658;9.068;2024-02-21T02:50:56;7.87;;;3.73;;
15595;SDS011;7898;48.658;9.068;2024-02-21T02:53:23;5.73;;;3.40;;
15595;SDS011;7898;48.658;9.068;2024-02-21T02:55:50;9.63;;;3.47;;
15595;SDS011;7898;48.658;9.068;2024-02-21T02:58:18;9.10;;;3.37;;
15595;SDS011;7898;48.658;9.068;2024-02-21T03:00:45;10.17;;;3.33;;
15595;SDS011;7898;48.658;9.068;2024-02-21T03:03:12;5.90;;;3.40;;
15595;SDS011;7898;48.658;9.068;2024-02-21T03:05:39;8.27;;;3.60;;
15595;SDS011;7898;48.658;9.068;2024-02-21T03:08:06;9.63;;;3.50;;
15595;SDS011;7898;48.658;9.068;2024-02-21T03:10:33;11.53;;;3.97;;
15595;SDS011;7898;48.658;9.068;2024-02-21T03:13:00;6.73;;;3.17;;
15595;SDS011;7898;48.658;9.068;2024-02-21T03:15:28;7.27;;;3.97;;
15595;SDS011;7898;48.658;9.068;2024-02-21T03:17:55;9.43;;;3.47;;
15595;SDS011;7898;48.658;9.068;2024-02-21T03:20:22;7.57;;;3.40;;
15595;SDS011;7898;48.658;9.068;2024-02-21T03:22:48;10.90;;;3.80;;
15595;SDS011;7898;48.658;9.068;2024-02-21T03:25:15;11.07;;;3.67;;
15595;SDS011;7898;48.658;9.068;2024-02-21T03:27:42;14.03;;;3.33;;
15595;SDS011;7898;48.658;9.068;2024-02-21T03:30:09;7.40;;;3.47;;
15595;SDS011;7898;48.658;9.068;2024-02-21T03:32:38;11.10;;;3.50;;
15595;SDS011;7898;48.658;9.068;2024-02-21T03:35:05;7.50;;;3.53;;
15595;SDS011;7898;48.658;9.068;2024-02-21T03:37:33;9.23;;;3.20;;
15595;SDS011;7898;48.658;9.068;2024-02-21T03:40:00;6.73;;;3.30;;
15595;SDS011;7898;48.658;9.068;2024-02-21T03:42:27;7.57;;;3.83;;
15595;SDS011;7898;48.658;9.068;2024-02-21T03:44:55;8.37;;;3.30;;
15595;SDS011;7898;48.658;9.068;2024-02-21T03:47:22;7.60;;;3.30;;
15595;SDS011;7898;48.658;9.068;2024-02-21T03:49:50;7.03;;;3.53;;
15595;SDS011;7898;48.658;9.068;2024-02-21T03:52:17;4.57;;;2.73;;
15595;SDS011;7898;48.658;9.068;2024-02-21T03:54:44;6.13;;;2.90;;
15595;SDS011;7898;48.658;9.068;2024-02-21T03:57:10;11.00;;;3.00;;
15595;SDS011;7898;48.658;9.068;2024-02-21T03:59:37;5.20;;;3.10;;
15595;SDS011;7898;48.658;9.068;2024-02-21T04:02:05;7.83;;;3.30;;
15595;SDS011;7898;48.658;9.068;2024-02-21T04:04:33;8.83;;;3.23;;
15595;SDS011;7898;48.658;9.068;2024-02-21T04:07:03;7.70;;;3.30;;
15595;SDS011;7898;48.658;9.068;2024-02-21T04:09:31;7.10;;;3.77;;
15595;SDS011;7898;48.658;9.068;2024-02-21T04:11:58;11.87;;;3.80;;
15595;SDS011;7898;48.658;9.068;2024-02-21T04:14:25;7.40;;;3.33;;
15595;SDS011;7898;48.658;9.068;2024-02-21T04:16:52;7.10;;;3.47;;
15595;SDS011;7898;48.658;9.068;2024-02-21T04:19:19;11.00;;;3.30;;
15595;SDS011;7898;48.658;9.068;2024-02-21T04:21:46;8.00;;;2.90;;
15595;SDS011;7898;48.658;9.068;2024-02-21T04:24:14;6.33;;;3.37;;
15595;SDS011;7898;48.658;9.068;2024-02-21T04:26:41;8.63;;;2.77;;
15595;SDS011;7898;48.658;9.068;2024-02-21T04:29:08;10.13;;;3.20;;
15595;SDS011;7898;48.658;9.068;2024-02-21T04:31:35;8.10;;;3.20;;
15595;SDS011;7898;48.658;9.068;2024-02-21T04:34:02;8.00;;;2.57;;
15595;SDS011;7898;48.658;9.068;2024-02-21T04:36:29;9.43;;;3.10;;
15595;SDS011;7898;48.658;9.068;2024-02-21T04:38:56;9.90;;;2.73;;
15595;SDS011;7898;48.658;9.068;2024-02-21T04:41:24;6.80;;;3.37;;
15595;SDS011;7898;48.658;9.068;2024-02-21T04:43:51;7.50;;;2.80;;
15595;SDS011;7898;48.658;9.068;2024-02-21T04:46:18;5.93;;;2.87;;
15595;SDS011;7898;48.658;9.068;2024-02-21T04:48:45;8.23;;;2.80;;
15595;SDS011;7898;48.658;9.068;2024-02-21T04:51:11;11.20;;;3.43;;
15595;SDS011;7898;48.658;9.068;2024-02-21T04:53:39;6.67;;;3.40;;
15595;SDS011;7898;48.658;9.068;2024-02-21T04:56:06;8.83;;;3.53;;
15595;SDS011;7898;48.658;9.068;2024-02-21T04:58:37;7.80;;;2.77;;
15595;SDS011;7898;48.658;9.068;2024-02-21T05:01:04;6.97;;;3.30;;
15595;SDS011;7898;48.658;9.068;2024-02-21T05:03:31;5.30;;;2.93;;
15595;SDS011;7898;48.658;9.068;2024-02-21T05:05:58;7.23;;;2.77;;
15595;SDS011;7898;48.658;9.068;2024-02-21T05:08:25;9.40;;;2.80;;
15595;SDS011;7898;48.658;9.068;2024-02-21T05:10:52;10.90;;;3.17;;
15595;SDS011;7898;48.658;9.068;2024-02-21T05:13:20;5.93;;;2.77;;
15595;SDS011;7898;48.658;9.068;2024-02-21T05:15:48;7.03;;;3.13;;
15595;SDS011;7898;48.658;9.068;2024-02-21T05:18:15;6.27;;;2.60;;
15595;SDS011;7898;48.658;9.068;2024-02-21T05:20:42;3.93;;;2.50;;
15595;SDS011;7898;48.658;9.068;2024-02-21T05:23:09;8.33;;;2.83;;
15595;SDS011;7898;48.658;9.068;2024-02-21T05:25:36;7.43;;;3.23;;
15595;SDS011;7898;48.658;9.068;2024-02-21T05:28:03;11.77;;;4.13;;
15595;SDS011;7898;48.658;9.068;2024-02-21T05:30:31;8.10;;;4.00;;
15595;SDS011;7898;48.658;9.068;2024-02-21T05:33:03;9.10;;;3.50;;
15595;SDS011;7898;48.658;9.068;2024-02-21T05:35:30;7.63;;;3.43;;
15595;SDS011;7898;48.658;9.068;2024-02-21T05:38:00;8.50;;;4.03;;
15595;SDS011;7898;48.658;9.068;2024-02-21T05:40:30;9.07;;;4.00;;
15595;SDS011;7898;48.658;9.068;2024-02-21T05:42:57;7.93;;;3.90;;
15595;SDS011;7898;48.658;9.068;2024-02-21T05:45:24;8.60;;;3.63;;
15595;SDS011;7898;48.658;9.068;2024-02-21T05:47:51;5.93;;;3.20;;
15595;SDS011;7898;48.658;9.068;2024-02-21T05:50:19;8.47;;;4.30;;
15595;SDS011;7898;48.658;9.068;2024-02-21T05:52:47;11.70;;;3.90;;
15595;SDS011;7898;48.658;9.068;2024-02-21T05:55:13;7.67;;;3.53;;
15595;SDS011;7898;48.658;9.068;2024-02-21T05:57:40;7.30;;;4.00;;
15595;SDS011;7898;48.658;9.068;2024-02-21T06:00:08;8.37;;;3.97;;
15595;SDS011;7898;48.658;9.068;2024-02-21T06:02:35;9.43;;;3.60;;
15595;SDS011;7898;48.658;9.068;2024-02-21T06:05:02;8.97;;;4.10;;
15595;SDS011;7898;48.658;9.068;2024-02-21T06:07:33;12.57;;;6.63;;
15595;SDS011;7898;48.658;9.068;2024-02-21T06:10:01;10.70;;;5.00;;
15595;SDS011;7898;48.658;9.068;2024-02-21T06:12:28;11.00;;;5.47;;
15595;SDS011;7898;48.658;9.068;2024-02-21T06:14:55;13.13;;;5.60;;
15595;SDS011;7898;48.658;9.068;2024-02-21T06:17:22;11.90;;;5.00;;
15595;SDS011;7898;48.658;9.068;2024-02-21T06:19:48;9.50;;;4.63;;
15595;SDS011;7898;48.658;9.068;2024-02-21T06:22:15;11.60;;;5.30;;
15595;SDS011;7898;48.658;9.068;2024-02-21T06:24:44;8.07;;;4.40;;
15595;SDS011;7898;48.658;9.068;2024-02-21T06:27:11;9.53;;;4.27;;
15595;SDS011;7898;48.658;9.068;2024-02-21T06:29:39;7.40;;;4.13;;
15595;SDS011;7898;48.658;9.068;2024-02-21T06:32:06;8.70;;;4.10;;
15595;SDS011;7898;48.658;9.068;2024-02-21T06:34:33;9.30;;;4.23;;
15595;SDS011;7898;48.658;9.068;2024-02-21T06:37:00;12.97;;;3.90;;
15595;SDS011;7898;48.658;9.068;2024-02-21T06:39:27;12.13;;;4.43;;
15595;SDS011;7898;48.658;9.068;2024-02-21T06:41:55;12.53;;;3.63;;
15595;SDS011;7898;48.658;9.068;2024-02-21T06:44:22;12.20;;;4.00;;
15595;SDS011;7898;48.658;9.068;2024-02-21T06:46:49;10.40;;;4.40;;
15595;SDS011;7898;48.658;9.068;2024-02-21T06:49:16;7.87;;;3.90;;
15595;SDS011;7898;48.658;9.068;2024-02-21T06:51:43;7.60;;;3.77;;
15595;SDS011;7898;48.658;9.068;2024-02-21T06:54:10;6.27;;;3.50;;
15595;SDS011;7898;48.658;9.068;2024-02-21T06:56:37;7.43;;;3.60;;
15595;SDS011;7898;48.658;9.068;2024-02-21T06:59:06;6.70;;;3.77;;
15595;SDS011;7898;48.658;9.068;2024-02-21T07:01:33;9.63;;;3.77;;
15595;SDS011;7898;48.658;9.068;2024-02-21T07:04:00;8.23;;;3.23;;
15595;SDS011;7898;48.658;9.068;2024-02-21T07:06:27;8.60;;;3.80;;
15595;SDS011;7898;48.658;9.068;2024-02-21T07:08:54;8.23;;;3.73;;
15595;SDS011;7898;48.658;9.068;2024-02-21T07:11:20;5.43;;;3.60;;
15595;SDS011;7898;48.658;9.068;2024-02-21T07:13:49;6.57;;;3.87;;
15595;SDS011;7898;48.658;9.068;2024-02-21T07:16:18;6.13;;;3.13;;
15595;SDS011;7898;48.658;9.068;2024-02-21T07:18:45;6.10;;;3.17;;
15595;SDS011;7898;48.658;9.068;2024-02-21T07:21:12;6.40;;;3.30;;
15595;SDS011;7898;48.658;9.068;2024-02-21T07:23:40;7.10;;;3.10;;
15595;SDS011;7898;48.658;9.068;2024-02-21T07:26:07;7.07;;;3.67;;
15595;SDS011;7898;48.658;9.068;2024-02-21T07:28:34;7.78;;;5.57;;
15595;SDS011;7898;48.658;9.068;2024-02-21T07:31:01;7.20;;;4.07;;
15595;SDS011;7898;48.658;9.068;2024-02-21T07:33:30;6.82;;;4.32;;
15595;SDS011;7898;48.658;9.068;2024-02-21T07:35:57;9.05;;;4.07;;
15595;SDS011;7898;48.658;9.068;2024-02-21T07:38:24;9.90;;;3.53;;
15595;SDS011;7898;48.658;9.068;2024-02-21T07:40:51;7.35;;;3.67;;
15595;SDS011;7898;48.658;9.068;2024-02-21T07:43:18;8.35;;;3.17;;
15595;SDS011;7898;48.658;9.068;2024-02-21T07:45:47;7.38;;;3.03;;
15595;SDS011;7898;48.658;9.068;2024-02-21T07:48:14;6.10;;;2.70;;
15595;SDS011;7898;48.658;9.068;2024-02-21T07:50:42;7.72;;;3.22;;
15595;SDS011;7898;48.658;9.068;2024-02-21T07:53:09;9.82;;;4.38;;
15595;SDS011;7898;48.658;9.068;2024-02-21T07:55:36;7.47;;;3.00;;
15595;SDS011;7898;48.658;9.068;2024-02-21T07:58:03;9.27;;;3.40;;
15595;SDS011;7898;48.658;9.068;2024-02-21T08:00:30;9.70;;;3.53;;
15595;SDS011;7898;48.658;9.068;2024-02-21T08:02:57;4.85;;;2.78;;
15595;SDS011;7898;48.658;9.068;2024-02-21T08:05:23;8.20;;;3.08;;
15595;SDS011;7898;48.658;9.068;2024-02-21T08:07:52;8.80;;;3.50;;
15595;SDS011;7898;48.658;9.068;2024-02-21T08:10:19;6.80;;;2.92;;
15595;SDS011;7898;48.658;9.068;2024-02-21T08:12:47;7.72;;;2.97;;
15595;SDS011;7898;48.658;9.068;2024-02-21T08:15:13;7.07;;;2.95;;
15595;SDS011;7898;48.658;9.068;2024-02-21T08:17:40;6.78;;;2.97;;
15595;SDS011;7898;48.658;9.068;2024-02-21T08:20:08;7.07;;;2.55;;
15595;SDS011;7898;48.658;9.068;2024-02-21T08:22:37;6.85;;;2.75;;
15595;SDS011;7898;48.658;9.068;2024-02-21T08:25:05;5.97;;;2.50;;
15595;SDS011;7898;48.658;9.068;2024-02-21T08:27:32;6.07;;;2.43;;
15595;SDS011;7898;48.658;9.068;2024-02-21T08:29:59;7.50;;;2.70;;
15595;SDS011;7898;48.658;9.068;2024-02-21T08:32:26;6.70;;;2.58;;
15595;SDS011;7898;48.658;9.068;2024-02-21T08:34:55;5.80;;;2.87;;
15595;SDS011;7898;48.658;9.068;2024-02-21T08:37:22;7.33;;;2.63;;
15595;SDS011;7898;48.658;9.068;2024-02-21T08:39:49;4.07;;;2.72;;
15595;SDS011;7898;48.658;9.068;2024-02-21T08:42:17;12.18;;;3.10;;
15595;SDS011;7898;48.658;9.068;2024-02-21T08:44:44;5.83;;;2.93;;
15595;SDS011;7898;48.658;9.068;2024-02-21T08:47:11;4.13;;;2.58;;
15595;SDS011;7898;48.658;9.068;2024-02-21T08:49:38;8.07;;;2.80;;
15595;SDS011;7898;48.658;9.068;2024-02-21T08:52:04;5.63;;;2.80;;
15595;SDS011;7898;48.658;9.068;2024-02-21T08:54:31;7.20;;;2.97;;
15595;SDS011;7898;48.658;9.068;2024-02-21T08:56:58;4.20;;;2.43;;
15595;SDS011;7898;48.658;9.068;2024-02-21T08:59:27;6.67;;;2.57;;
15595;SDS011;7898;48.658;9.068;2024-02-21T09:01:54;12.60;;;3.53;;
15595;SDS011;7898;48.658;9.068;2024-02-21T09:04:20;7.43;;;2.90;;
15595;SDS011;7898;48.658;9.068;2024-02-21T09:06:47;6.00;;;2.47;;
15595;SDS011;7898;48.658;9.068;2024-02-21T09:09:14;10.43;;;2.93;;
15595;SDS011;7898;48.658;9.068;2024-02-21T09:11:41;8.27;;;3.27;;
15595;SDS011;7898;48.658;9.068;2024-02-21T09:14:08;4.73;;;2.40;;
15595;SDS011;7898;48.658;9.068;2024-02-21T09:16:36;5.83;;;2.83;;
15595;SDS011;7898;48.658;9.068;2024-02-21T09:19:03;6.47;;;2.83;;
15595;SDS011;7898;48.658;9.068;2024-02-21T09:21:30;6.40;;;2.47;;
15595;SDS011;7898;48.658;9.068;2024-02-21T09:23:56;5.30;;;2.60;;
15595;SDS011;7898;48.658;9.068;2024-02-21T09:26:23;8.23;;;2.90;;
15595;SDS011;7898;48.658;9.068;2024-02-21T09:28:50;6.33;;;2.60;;
15595;SDS011;7898;48.658;9.068;2024-02-21T09:31:17;5.23;;;2.10;;
15595;SDS011;7898;48.658;9.068;2024-02-21T09:33:46;6.43;;;2.40;;
15595;SDS011;7898;48.658;9.068;2024-02-21T09:36:13;6.70;;;2.97;;
15595;SDS011;7898;48.658;9.068;2024-02-21T09:38:40;6.07;;;2.60;;
15595;SDS011;7898;48.658;9.068;2024-02-21T09:41:15;7.30;;;2.53;;
15595;SDS011;7898;48.658;9.068;2024-02-21T09:43:43;6.28;;;2.35;;
15595;SDS011;7898;48.658;9.068;2024-02-21T09:46:13;4.47;;;2.50;;
15595;SDS011;7898;48.658;9.068;2024-02-21T09:48:49;7.35;;;2.45;;
15595;SDS011;7898;48.658;9.068;2024-02-21T09:51:26;6.20;;;2.13;;
15595;SDS011;7898;48.658;9.068;2024-02-21T09:53:55;5.32;;;2.33;;
15595;SDS011;7898;48.658;9.068;2024-02-21T09:56:23;4.03;;;2.03;;
15595;SDS011;7898;48.658;9.068;2024-02-21T09:58:50;6.25;;;2.50;;
15595;SDS011;7898;48.658;9.068;2024-02-21T10:01:17;7.43;;;2.50;;
15595;SDS011;7898;48.658;9.068;2024-02-21T10:03:44;5.45;;;2.40;;
15595;SDS011;7898;48.658;9.068;2024-02-21T10:06:12;9.27;;;2.47;;
15595;SDS011;7898;48.658;9.068;2024-02-21T10:08:39;5.55;;;2.33;;
15595;SDS011;7898;48.658;9.068;2024-02-21T10:11:06;5.47;;;2.40;;
15595;SDS011;7898;48.658;9.068;2024-02-21T10:13:34;4.60;;;1.95;;
15595;SDS011;7898;48.658;9.068;2024-02-21T10:16:03;5.47;;;2.03;;
15595;SDS011;7898;48.658;9.068;2024-02-21T10:18:31;5.35;;;1.85;;
15595;SDS011;7898;48.658;9.068;2024-02-21T10:21:02;8.20;;;1.92;;
15595;SDS011;7898;48.658;9.068;2024-02-21T10:23:41;4.38;;;2.22;;
15595;SDS011;7898;48.658;9.068;2024-02-21T10:26:09;7.10;;;2.10;;
15595;SDS011;7898;48.658;9.068;2024-02-21T10:28:36;4.93;;;2.10;;
15595;SDS011;7898;48.658;9.068;2024-02-21T10:31:07;4.65;;;2.33;;
15595;SDS011;7898;48.658;9.068;2024-02-21T10:33:34;5.35;;;2.03;;
15595;SDS011;7898;48.658;9.068;2024-02-21T10:36:07;6.03;;;2.22;;
15595;SDS011;7898;48.658;9.068;2024-02-21T10:38:35;5.53;;;2.35;;
15595;SDS011;7898;48.658;9.068;2024-02-21T10:41:05;4.30;;;1.92;;
15595;SDS011;7898;48.658;9.068;2024-02-21T10:43:35;5.53;;;1.77;;
15595;SDS011;7898;48.658;9.068;2024-02-21T10:46:06;7.50;;;2.70;;
15595;SDS011;7898;48.658;9.068;2024-02-21T10:48:38;7.10;;;1.70;;
15595;SDS011;7898;48.658;9.068;2024-02-21T10:51:13;6.03;;;1.92;;
15595;SDS011;7898;48.658;9.068;2024-02-21T10:53:44;5.32;;;1.75;;
15595;SDS011;7898;48.658;9.068;2024-02-21T10:56:26;4.95;;;1.75;;
15595;SDS011;7898;48.658;9.068;2024-02-21T10:58:56;2.72;;;1.50;;
15595;SDS011;7898;48.658;9.068;2024-02-21T11:01:24;5.18;;;1.70;;
15595;SDS011;7898;48.658;9.068;2024-02-21T11:03:54;2.45;;;1.55;;
15595;SDS011;7898;48.658;9.068;2024-02-21T11:06:23;5.05;;;2.22;;
15595;SDS011;7898;48.658;9.068;2024-02-21T11:08:59;5.97;;;1.77;;
15595;SDS011;7898;48.658;9.068;2024-02-21T11:11:31;3.88;;;1.55;;
15595;SDS011;7898;48.658;9.068;2024-02-21T11:14:06;4.97;;;1.67;;
15595;SDS011;7898;48.658;9.068;2024-02-21T11:16:37;3.85;;;1.80;;
15595;SDS011;7898;48.658;9.068;2024-02-21T11:19:07;4.55;;;1.55;;
15595;SDS011;7898;48.658;9.068;2024-02-21T11:21:36;4.65;;;1.73;;
15595;SDS011;7898;48.658;9.068;2024-02-21T11:24:04;4.53;;;1.77;;
15595;SDS011;7898;48.658;9.068;2024-02-21T11:26:32;4.85;;;2.17;;
15595;SDS011;7898;48.658;9.068;2024-02-21T11:28:59;3.38;;;2.10;;
15595;SDS011;7898;48.658;9.068;2024-02-21T11:31:37;5.55;;;1.70;;
15595;SDS011;7898;48.658;9.068;2024-02-21T11:34:08;5.10;;;1.70;;
15595;SDS011;7898;48.658;9.068;2024-02-21T11:36:35;4.63;;;1.50;;
15595;SDS011;7898;48.658;9.068;2024-02-21T11:39:03;4.38;;;1.70;;
15595;SDS011;7898;48.658;9.068;2024-02-21T11:41:30;4.68;;;1.92;;
15595;SDS011;7898;48.658;9.068;2024-02-21T11:43:58;3.90;;;1.92;;
15595;SDS011;7898;48.658;9.068;2024-02-21T11:46:25;3.67;;;1.83;;
15595;SDS011;7898;48.658;9.068;2024-02-21T11:48:52;3.22;;;1.80;;
15595;SDS011;7898;48.658;9.068;2024-02-21T11:51:24;2.90;;;1.67;;
15595;SDS011;7898;48.658;9.068;2024-02-21T11:53:51;6.60;;;1.58;;
15595;SDS011;7898;48.658;9.068;2024-02-21T11:56:18;2.55;;;1.63;;
15595;SDS011;7898;48.658;9.068;2024-02-21T11:58:47;3.55;;;1.60;;
15595;SDS011;7898;48.658;9.068;2024-02-21T12:01:14;2.80;;;1.77;;
15595;SDS011;7898;48.658;9.068;2024-02-21T12:03:42;3.15;;;1.58;;
15595;SDS011;7898;48.658;9.068;2024-02-21T12:06:17;2.20;;;1.30;;
15595;SDS011;7898;48.658;9.068;2024-02-21T12:08:46;3.65;;;1.77;;
15595;SDS011;7898;48.658;9.068;2024-02-21T12:11:19;3.08;;;1.67;;
15595;SDS011;7898;48.658;9.068;2024-02-21T12:13:57;2.47;;;1.42;;
15595;SDS011;7898;48.658;9.068;2024-02-21T12:16:26;2.05;;;1.20;;
15595;SDS011;7898;48.658;9.068;2024-02-21T12:18:54;6.57;;;1.63;;
15595;SDS011;7898;48.658;9.068;2024-02-21T12:21:23;3.38;;;1.73;;
15595;SDS011;7898;48.658;9.068;2024-02-21T12:23:50;3.22;;;1.30;;
15595;SDS011;7898;48.658;9.068;2024-02-21T12:26:17;4.13;;;1.50;;
15595;SDS011;7898;48.658;9.068;2024-02-21T12:28:44;2.10;;;1.25;;
15595;SDS011;7898;48.658;9.068;2024-02-21T12:31:12;3.80;;;1.67;;
15595;SDS011;7898;48.658;9.068;2024-02-21T12:33:41;3.38;;;1.48;;
15595;SDS011;7898;48.658;9.068;2024-02-21T12:36:08;2.90;;;1.50;;
15595;SDS011;7898;48.658;9.068;2024-02-21T12:38:35;4.63;;;1.23;;
15595;SDS011;7898;48.658;9.068;2024-02-21T12:41:02;2.85;;;1.30;;
15595;SDS011;7898;48.658;9.068;2024-02-21T12:43:29;2.83;;;1.05;;
15595;SDS011;7898;48.658;9.068;2024-02-21T12:45:56;3.17;;;1.10;;
15595;SDS011;7898;48.658;9.068;2024-02-21T12:48:25;3.17;;;1.52;;
15595;SDS011;7898;48.658;9.068;2024-02-21T12:50:52;2.90;;;1.42;;
15595;SDS011;7898;48.658;9.068;2024-02-21T12:53:19;2.15;;;1.17;;
15595;SDS011;7898;48.658;9.068;2024-02-21T12:55:48;2.25;;;1.10;;
15595;SDS011;7898;48.658;9.068;2024-02-21T12:58:15;2.97;;;1.15;;
15595;SDS011;7898;48.658;9.068;2024-02-21T13:00:42;3.55;;;1.52;;
15595;SDS011;7898;48.658;9.068;2024-02-21T13:03:09;3.85;;;2.08;;
15595;SDS011;7898;48.658;9.068;2024-02-21T13:05:37;1.42;;;1.08;;
15595;SDS011;7898;48.658;9.068;2024-02-21T13:08:05;2.92;;;1.10;;
15595;SDS011;7898;48.658;9.068;2024-02-21T13:10:32;1.65;;;1.45;;
15595;SDS011;7898;48.658;9.068;2024-02-21T13:12:59;5.35;;;4.00;;
15595;SDS011;7898;48.658;9.068;2024-02-21T13:15:26;3.72;;;2.65;;
15595;SDS011;7898;48.658;9.068;2024-02-21T13:17:54;1.65;;;1.27;;
15595;SDS011;7898;48.658;9.068;2024-02-21T13:20:21;2.95;;;1.50;;
15595;SDS011;7898;48.658;9.068;2024-02-21T13:22:50;2.67;;;1.23;;
15595;SDS011;7898;48.658;9.068;2024-02-21T13:25:17;4.00;;;1.00;;
15595;SDS011;7898;48.658;9.068;2024-02-21T13:27:46;3.13;;;1.20;;
15595;SDS011;7898;48.658;9.068;2024-02-21T13:30:13;2.58;;;1.27;;
15595;SDS011;7898;48.658;9.068;2024-02-21T13:32:43;4.68;;;1.30;;
15595;SDS011;7898;48.658;9.068;2024-02-21T13:35:11;1.92;;;1.35;;
15595;SDS011;7898;48.658;9.068;2024-02-21T13:37:39;4.68;;;1.75;;
15595;SDS011;7898;48.658;9.068;2024-02-21T13:40:08;2.78;;;2.40;;
15595;SDS011;7898;48.658;9.068;2024-02-21T13:42:35;7.32;;;2.00;;
15595;SDS011;7898;48.658;9.068;2024-02-21T13:45:03;3.88;;;1.75;;
15595;SDS011;7898;48.658;9.068;2024-02-21T13:47:31;3.22;;;2.55;;
15595;SDS011;7898;48.658;9.068;2024-02-21T13:49:59;3.03;;;1.55;;
15595;SDS011;7898;48.658;9.068;2024-02-21T13:52:26;2.85;;;1.75;;
15595;SDS011;7898;48.658;9.068;2024-02-21T13:54:53;2.90;;;1.50;;
15595;SDS011;7898;48.658;9.068;2024-02-21T13:57:21;2.58;;;1.50;;
15595;SDS011;7898;48.658;9.068;2024-02-21T13:59:48;6.45;;;1.70;;
15595;SDS011;7898;48.658;9.068;2024-02-21T14:02:15;3.10;;;1.88;;
15595;SDS011;7898;48.658;9.068;2024-02-21T14:04:42;10.68;;;5.18;;
15595;SDS011;7898;48.658;9.068;2024-02-21T14:07:09;7.90;;;5.07;;
15595;SDS011;7898;48.658;9.068;2024-02-21T14:09:36;7.03;;;4.97;;
15595;SDS011;7898;48.658;9.068;2024-02-21T14:12:03;3.22;;;2.20;;
15595;SDS011;7898;48.658;9.068;2024-02-21T14:14:34;2.38;;;1.30;;
15595;SDS011;7898;48.658;9.068;2024-02-21T14:17:01;3.80;;;2.35;;
15595;SDS011;7898;48.658;9.068;2024-02-21T14:19:28;2.80;;;1.80;;
15595;SDS011;7898;48.658;9.068;2024-02-21T14:21:55;4.90;;;1.83;;
15595;SDS011;7898;48.658;9.068;2024-02-21T14:24:22;3.10;;;1.70;;
15595;SDS011;7898;48.658;9.068;2024-02-21T14:26:49;2.08;;;1.65;;
15595;SDS011;7898;48.658;9.068;2024-02-21T14:29:16;2.90;;;1.80;;
15595;SDS011;7898;48.658;9.068;2024-02-21T14:31:44;8.13;;;1.60;;
15595;SDS011;7898;48.658;9.068;2024-02-21T14:34:11;1.60;;;1.50;;
15595;SDS011;7898;48.658;9.068;2024-02-21T14:36:39;2.45;;;1.55;;
15595;SDS011;7898;48.658;9.068;2024-02-21T14:39:07;4.28;;;1.83;;
15595;SDS011;7898;48.658;9.068;2024-02-21T14:41:34;3.05;;;1.88;;
15595;SDS011;7898;48.658;9.068;2024-02-21T14:44:01;6.65;;;2.10;;
15595;SDS011;7898;48.658;9.068;2024-02-21T14:46:28;5.45;;;2.90;;
15595;SDS011;7898;48.658;9.068;2024-02-21T14:48:57;4.05;;;2.33;;
15595;SDS011;7898;48.658;9.068;2024-02-21T14:51:24;3.67;;;2.00;;
15595;SDS011;7898;48.658;9.068;2024-02-21T14:53:53;10.95;;;6.13;;
15595;SDS011;7898;48.658;9.068;2024-02-21T14:56:23;22.88;;;13.07;;
15595;SDS011;7898;48.658;9.068;2024-02-21T14:58:50;10.45;;;7.00;;
15595;SDS011;7898;48.658;9.068;2024-02-21T15:01:17;17.48;;;12.63;;